SEHI weather

Cotachachi Airport
Cotacachi, Imbabura Province, Ecuador

Public forecast

Using degrees Celsius for public forecast. Weather courtesy of forecast.io.

METAR (pilot weather report)

Closest report is Mariscal Sucre International Airport, 11.7 nm (21.7 km) NNW. Retrieved 2019/08/26 08:00 UTC (6 minutes ago):

SEQM 260800Z 12006KT 9999 FEW040 09/04 Q1025 NOSIG RMK A3026

TAF (pilot weather forecast)

Forecast is more than 12 hours old.

Closest forecast is Mariscal Sucre International Airport, 11.7 nm (21.7 km) NNW. Retrieved 2019/08/25 00:33 UTC (1 day ago):

TAF SEQM 252222Z 2600/2624 04005KT 9999 SCT033 BECMG 2606/2607 VRB03KT BECMG 2611/2612 CAVOK BECMG 2618/2619 15014KT SCT040 TX26/2619Z TN07/2611Z